Time;durP1;ratioP1;P1;durP2;ratioP2;P2;SDS_P1;SDS_P2;PMS_P1;PMS_P2;Temp;Humidity;BMP_temperature;BMP_pressure;BME280_temperature;BME280_humidity;BME280_pressure;Samples;Min_cycle;Max_cycle;Signal;HPM_P1;HPM_P2
2022/08/30 00:02:59;;;;;;;5.60;2.93;;;;;;;24.26;49.62;100376.88;5071908;28;20280;-60
2022/08/30 00:05:25;;;;;;;7.87;3.90;;;;;;;24.37;49.59;100376.81;5070424;28;20401;-60
2022/08/30 00:07:50;;;;;;;6.47;3.20;;;;;;;24.33;49.65;100378.94;5070475;28;20790;-60
2022/08/30 00:10:16;;;;;;;8.83;3.57;;;;;;;24.35;49.78;100377.28;5070344;28;20617;-61
2022/08/30 00:12:42;;;;;;;8.70;3.10;;;;;;;24.42;49.65;100374.34;5069992;28;20268;-61
2022/08/30 00:15:08;;;;;;;7.90;2.90;;;;;;;24.44;49.53;100379.69;5069365;28;20312;-60
2022/08/30 00:17:33;;;;;;;6.83;3.70;;;;;;;24.36;49.70;100380.97;5070284;28;20461;-61
2022/08/30 00:19:59;;;;;;;7.20;3.40;;;;;;;24.42;49.59;100382.16;5071433;28;20903;-60
2022/08/30 00:22:24;;;;;;;7.10;2.50;;;;;;;24.41;49.53;100381.34;5071467;28;20194;-60
2022/08/30 00:24:50;;;;;;;4.63;3.10;;;;;;;24.46;49.21;100386.69;5072326;28;20179;-60
2022/08/30 00:27:15;;;;;;;6.47;3.10;;;;;;;24.45;49.50;100385.06;5069978;28;20905;-60
2022/08/30 00:29:41;;;;;;;6.10;3.33;;;;;;;24.43;49.25;100383.84;5072922;28;20179;-60
2022/08/30 00:32:06;;;;;;;6.50;3.13;;;;;;;24.44;49.40;100383.38;5071555;28;20202;-60
2022/08/30 00:34:32;;;;;;;6.17;3.00;;;;;;;24.46;49.81;100386.69;5071458;28;20206;-60
2022/08/30 00:36:58;;;;;;;4.50;2.93;;;;;;;24.35;50.03;100385.09;5072730;28;20281;-61
2022/08/30 00:39:24;;;;;;;12.00;3.93;;;;;;;24.38;49.71;100387.16;5072060;28;20495;-61
2022/08/30 00:41:49;;;;;;;7.77;3.47;;;;;;;24.43;49.53;100381.75;5071462;28;20553;-61
2022/08/30 00:44:15;;;;;;;7.00;3.13;;;;;;;24.45;49.54;100379.28;5070038;28;20669;-60
2022/08/30 00:46:40;;;;;;;4.00;2.57;;;;;;;24.45;49.86;100378.44;5071539;28;20173;-61
2022/08/30 00:49:06;;;;;;;5.30;2.93;;;;;;;24.45;49.84;100379.28;5071291;28;20186;-61
2022/08/30 00:51:32;;;;;;;6.43;3.30;;;;;;;24.45;50.08;100385.06;5069820;28;20167;-60
2022/08/30 00:53:58;;;;;;;5.80;2.80;;;;;;;24.45;49.89;100385.06;5070867;28;20472;-60
2022/08/30 00:56:24;;;;;;;7.07;3.00;;;;;;;24.45;49.88;100385.06;5071261;28;20214;-60
2022/08/30 00:58:50;;;;;;;6.00;3.30;;;;;;;24.46;50.06;100380.91;5055085;28;20198;-60
2022/08/30 01:01:16;;;;;;;8.30;3.67;;;;;;;24.44;49.84;100382.59;5052731;28;20433;-65
2022/08/30 01:03:42;;;;;;;13.60;3.47;;;;;;;24.44;50.07;100376.81;5051050;28;20879;-65
2022/08/30 01:06:07;;;;;;;9.83;3.97;;;;;;;24.45;50.17;100379.28;5051236;28;20217;-65
2022/08/30 01:08:34;;;;;;;5.33;3.00;;;;;;;24.44;49.81;100376.81;5050954;28;20419;-64
2022/08/30 01:10:59;;;;;;;5.63;3.13;;;;;;;24.45;49.92;100385.06;5050949;28;20176;-64
2022/08/30 01:13:25;;;;;;;6.37;3.20;;;;;;;24.45;50.29;100385.06;5050713;28;20516;-65
2022/08/30 01:15:50;;;;;;;7.90;3.20;;;;;;;24.43;50.05;100381.75;5050767;28;20244;-65
2022/08/30 01:18:17;;;;;;;7.50;3.57;;;;;;;24.44;49.89;100379.69;5050947;28;20199;-64
2022/08/30 01:21:06;;;;;;;6.53;3.33;;;;;;;24.45;50.57;100395.75;5050756;28;20638;-65
2022/08/30 01:23:31;;;;;;;7.23;2.97;;;;;;;24.46;50.07;100389.56;5052083;28;20773;-65
2022/08/30 01:25:57;;;;;;;8.63;3.20;;;;;;;24.46;50.41;100386.69;5050706;28;20501;-64
2022/08/30 01:28:24;;;;;;;4.70;2.80;;;;;;;24.46;50.41;100389.56;5059563;28;20847;-65
2022/08/30 01:30:50;;;;;;;5.10;2.63;;;;;;;24.46;50.81;100389.56;5050510;28;20660;-65
2022/08/30 01:33:15;;;;;;;5.37;3.30;;;;;;;24.46;50.75;100392.47;5052189;28;20760;-65
2022/08/30 01:36:05;;;;;;;10.07;3.40;;;;;;;24.47;50.58;100390.38;5051503;28;20434;-65
2022/08/30 01:38:36;;;;;;;6.67;3.10;;;;;;;24.47;50.88;100387.50;5034096;28;20191;-64
2022/08/30 01:41:13;;;;;;;5.40;3.10;;;;;;;24.46;50.86;100383.81;5050437;28;20554;-65
2022/08/30 01:43:39;;;;;;;4.87;3.07;;;;;;;24.47;51.00;100387.50;5050376;28;20857;-64
2022/08/30 01:46:04;;;;;;;7.77;3.63;;;;;;;24.47;50.76;100397.00;5050170;28;20411;-65
2022/08/30 01:48:30;;;;;;;8.00;3.10;;;;;;;24.45;50.93;100390.00;5051505;28;20172;-65
2022/08/30 01:50:55;;;;;;;6.67;3.03;;;;;;;24.45;51.13;100385.06;5051379;28;20203;-64
2022/08/30 01:53:21;;;;;;;4.97;3.00;;;;;;;24.46;50.99;100386.69;5056217;28;20202;-65
2022/08/30 01:55:46;;;;;;;6.40;2.97;;;;;;;24.45;51.02;100390.81;5071178;28;20561;-65
2022/08/30 01:58:12;;;;;;;5.40;2.80;;;;;;;24.46;50.73;100397.41;5063187;28;20183;-65
2022/08/30 02:00:37;;;;;;;6.10;3.20;;;;;;;24.44;50.88;100400.69;5070972;28;20182;-64
2022/08/30 02:03:03;;;;;;;5.20;3.50;;;;;;;24.45;51.17;100390.81;5070674;28;20642;-65
2022/08/30 02:05:28;;;;;;;4.40;2.80;;;;;;;24.45;51.13;100390.81;5071092;28;20171;-65
2022/08/30 02:07:54;;;;;;;5.53;3.20;;;;;;;24.45;51.37;100392.88;5069956;28;20171;-65
2022/08/30 02:10:19;;;;;;;4.77;3.10;;;;;;;24.45;51.11;100390.81;5071055;28;20304;-64
2022/08/30 02:12:46;;;;;;;6.80;3.00;;;;;;;24.46;51.39;100391.63;5070514;28;20223;-65
2022/08/30 02:15:12;;;;;;;5.90;2.80;;;;;;;24.46;51.61;100380.91;5070950;28;20250;-65
2022/08/30 02:17:37;;;;;;;6.20;2.73;;;;;;;24.46;51.25;100386.69;5070914;28;20445;-65
2022/08/30 02:20:04;;;;;;;5.27;2.77;;;;;;;24.45;51.23;100387.94;5069494;28;20187;-64
2022/08/30 02:22:30;;;;;;;7.40;2.83;;;;;;;24.46;51.46;100385.84;5068715;28;20195;-65
2022/08/30 02:24:55;;;;;;;5.97;2.67;;;;;;;24.46;51.20;100386.69;5070196;28;20459;-64
2022/08/30 02:27:21;;;;;;;5.10;2.63;;;;;;;24.46;51.13;100380.91;5070281;28;20276;-64
2022/08/30 02:29:46;;;;;;;5.30;2.80;;;;;;;24.45;51.19;100376.41;5069724;28;20661;-65
2022/08/30 02:32:12;;;;;;;4.33;2.87;;;;;;;24.44;51.27;100371.84;5068718;28;20421;-65
2022/08/30 02:34:37;;;;;;;7.50;3.13;;;;;;;24.44;51.42;100383.38;5070957;28;20171;-65
2022/08/30 02:37:03;;;;;;;4.67;2.90;;;;;;;24.44;51.41;100380.50;5069139;28;20201;-65
2022/08/30 02:39:29;;;;;;;5.63;2.53;;;;;;;24.43;51.58;100375.16;5070863;28;20210;-65
2022/08/30 02:41:54;;;;;;;7.07;3.30;;;;;;;24.41;50.96;100372.69;5071006;28;20904;-65
2022/08/30 02:44:20;;;;;;;7.20;3.03;;;;;;;24.42;51.25;100373.50;5070914;28;20615;-65
2022/08/30 02:46:46;;;;;;;5.33;2.47;;;;;;;24.41;51.34;100366.94;5071801;28;20171;-65
2022/08/30 02:49:13;;;;;;;5.83;3.13;;;;;;;24.41;51.40;100366.94;5071341;28;20202;-63
2022/08/30 02:51:38;;;;;;;6.30;2.90;;;;;;;24.41;50.94;100369.81;5071028;28;20453;-65
2022/08/30 02:54:04;;;;;;;7.77;2.90;;;;;;;24.41;50.97;100366.94;5070936;28;20441;-65
2022/08/30 02:56:30;;;;;;;7.00;3.30;;;;;;;24.39;51.13;100362.81;5069415;28;20488;-65
2022/08/30 02:58:56;;;;;;;7.30;3.20;;;;;;;24.40;50.87;100358.69;5053788;28;20183;-64
2022/08/30 03:01:21;;;;;;;5.27;2.50;;;;;;;24.40;51.41;100352.91;5049062;28;20411;-65
2022/08/30 03:03:47;;;;;;;6.10;2.90;;;;;;;24.39;51.43;100357.03;5050807;28;20168;-65
2022/08/30 03:06:13;;;;;;;8.70;3.07;;;;;;;24.39;51.54;100357.84;5050608;28;20183;-64
2022/08/30 03:08:38;;;;;;;8.40;3.17;;;;;;;24.39;51.22;100354.16;5052300;28;20261;-64
2022/08/30 03:11:04;;;;;;;4.60;3.10;;;;;;;24.38;51.02;100350.44;5069039;28;20187;-65
2022/08/30 03:13:29;;;;;;;4.50;3.07;;;;;;;24.37;51.26;100357.44;5070612;28;20219;-65
2022/08/30 03:15:54;;;;;;;5.83;3.23;;;;;;;24.35;50.78;100362.84;5071853;28;20191;-65
2022/08/30 03:18:20;;;;;;;11.07;3.40;;;;;;;24.35;51.39;100359.13;5073061;28;20175;-64
2022/08/30 03:20:46;;;;;;;7.50;2.97;;;;;;;24.35;50.99;100357.06;5074326;28;20171;-65
2022/08/30 03:23:11;;;;;;;6.70;2.63;;;;;;;24.34;51.06;100355.41;5073147;28;20190;-65
2022/08/30 03:25:38;;;;;;;6.53;2.70;;;;;;;24.36;51.30;100349.22;5074182;28;20171;-64
2022/08/30 03:28:04;;;;;;;4.50;3.20;;;;;;;24.36;51.34;100354.97;5074436;28;20526;-65
2022/08/30 03:30:29;;;;;;;6.10;3.00;;;;;;;24.36;51.25;100358.69;5073924;28;20424;-64
2022/08/30 03:32:55;;;;;;;6.67;3.40;;;;;;;24.35;51.49;100359.94;5072837;28;20727;-65
2022/08/30 03:35:20;;;;;;;5.90;3.10;;;;;;;24.35;51.14;100357.06;5073966;28;20171;-65
2022/08/30 03:37:46;;;;;;;7.00;2.83;;;;;;;24.33;51.34;100353.75;5073866;28;20557;-65
2022/08/30 03:40:12;;;;;;;4.10;2.63;;;;;;;24.32;51.38;100355.00;5074420;28;20725;-65
2022/08/30 03:42:40;;;;;;;5.40;3.13;;;;;;;24.34;51.41;100361.16;5073903;28;20167;-65
2022/08/30 03:45:06;;;;;;;6.67;2.80;;;;;;;24.33;51.37;100353.75;5073558;28;20989;-65
2022/08/30 03:47:31;;;;;;;5.93;2.60;;;;;;;24.34;50.51;100361.16;5055806;28;20864;-65
2022/08/30 03:49:58;;;;;;;5.10;3.10;;;;;;;24.32;51.12;100363.66;5073859;28;20414;-64
2022/08/30 03:52:24;;;;;;;6.50;2.97;;;;;;;24.31;51.02;100364.06;5072896;28;20252;-65
2022/08/30 03:54:49;;;;;;;7.77;3.13;;;;;;;24.29;50.83;100358.72;5072200;28;20424;-65
2022/08/30 03:57:15;;;;;;;8.80;3.20;;;;;;;24.29;50.89;100361.59;5068833;28;20250;-65
2022/08/30 03:59:40;;;;;;;6.90;3.40;;;;;;;24.29;51.00;100358.72;5051852;28;20172;-65
2022/08/30 04:02:06;;;;;;;4.10;2.50;;;;;;;24.30;51.24;100365.31;5050595;28;20614;-64
2022/08/30 04:04:31;;;;;;;7.23;2.90;;;;;;;24.28;51.07;100368.63;5050558;28;20176;-65
2022/08/30 04:06:57;;;;;;;7.43;3.17;;;;;;;24.27;50.82;100361.22;5063803;28;20654;-65
2022/08/30 04:09:22;;;;;;;5.80;2.90;;;;;;;24.27;50.72;100366.97;5073484;28;20176;-65
2022/08/30 04:11:47;;;;;;;5.93;2.63;;;;;;;24.26;50.66;100370.28;5071660;28;20223;-64
2022/08/30 04:14:13;;;;;;;6.37;3.17;;;;;;;24.26;50.76;100370.28;5072902;28;20183;-65
2022/08/30 04:16:38;;;;;;;5.67;2.97;;;;;;;24.25;50.52;100368.63;5072805;28;20218;-65
2022/08/30 04:19:04;;;;;;;7.20;3.10;;;;;;;24.25;50.46;100375.25;5071468;28;20562;-65
2022/08/30 04:21:29;;;;;;;5.10;2.90;;;;;;;24.24;50.95;100372.78;5071313;28;20160;-65
2022/08/30 04:23:55;;;;;;;4.20;2.87;;;;;;;24.26;50.87;100378.94;5071320;28;20208;-65
2022/08/30 04:26:20;;;;;;;7.30;3.37;;;;;;;24.25;50.96;100372.34;5069057;28;20191;-64
2022/08/30 04:28:46;;;;;;;5.50;3.63;;;;;;;24.26;51.20;100376.88;5070528;28;20175;-65
2022/08/30 04:31:13;;;;;;;6.33;3.10;;;;;;;24.27;50.96;100372.75;5070981;28;20175;-65
2022/08/30 04:33:39;;;;;;;5.53;3.13;;;;;;;24.26;51.22;100368.22;5071968;28;20541;-64
2022/08/30 04:36:06;;;;;;;4.50;2.53;;;;;;;24.27;51.17;100366.16;5073060;28;20587;-64
2022/08/30 04:38:32;;;;;;;4.70;2.87;;;;;;;24.27;50.77;100360.38;5072849;28;20167;-65
2022/08/30 04:40:57;;;;;;;5.10;2.80;;;;;;;24.26;50.99;100368.22;5072955;28;20424;-64
2022/08/30 04:43:25;;;;;;;4.77;2.67;;;;;;;24.26;50.96;100370.28;5072442;28;20405;-64
2022/08/30 04:45:51;;;;;;;3.97;2.30;;;;;;;24.26;51.13;100370.28;5072426;28;20171;-64
2022/08/30 04:48:17;;;;;;;4.77;2.93;;;;;;;24.26;51.23;100376.06;5072700;28;20795;-64
2022/08/30 04:50:43;;;;;;;4.70;2.87;;;;;;;24.26;51.28;100382.66;5072985;28;20669;-65
2022/08/30 04:53:08;;;;;;;5.80;3.10;;;;;;;24.27;51.40;100381.41;5071026;28;20538;-64
2022/08/30 04:55:33;;;;;;;5.10;3.00;;;;;;;24.26;51.29;100382.66;5072494;28;20592;-65
2022/08/30 04:57:59;;;;;;;6.03;2.43;;;;;;;24.25;51.47;100392.56;5063238;28;20650;-64
2022/08/30 05:00:26;;;;;;;7.50;3.30;;;;;;;24.26;51.21;100393.38;5052519;28;20183;-65
2022/08/30 05:02:51;;;;;;;5.47;2.90;;;;;;;24.26;50.91;100393.38;5052266;28;20520;-64
2022/08/30 05:08:01;;;;;;;4.10;2.67;;;;;;;24.24;51.36;100401.63;5052326;28;20167;-65
2022/08/30 05:10:27;;;;;;;4.83;2.50;;;;;;;24.24;51.53;100402.44;5052074;28;20417;-65
2022/08/30 05:12:53;;;;;;;4.67;2.80;;;;;;;24.24;51.38;100402.44;5052138;28;20314;-65
2022/08/30 05:15:19;;;;;;;7.93;3.33;;;;;;;24.25;51.26;100406.16;5052196;28;20675;-64
2022/08/30 05:17:44;;;;;;;3.40;2.13;;;;;;;24.25;51.27;100407.00;5050907;28;20682;-64
2022/08/30 05:20:10;;;;;;;3.80;2.70;;;;;;;24.25;51.49;100407.00;5050775;28;20172;-65
2022/08/30 05:22:36;;;;;;;5.60;2.90;;;;;;;24.25;51.45;100404.09;5050623;28;20168;-65
2022/08/30 05:25:02;;;;;;;4.33;2.60;;;;;;;24.24;51.30;100405.31;5049253;28;20180;-64
2022/08/30 05:27:28;;;;;;;4.70;2.70;;;;;;;24.24;51.06;100401.63;5049338;28;20415;-65
2022/08/30 05:29:54;;;;;;;10.50;3.23;;;;;;;24.23;51.46;100403.69;5050694;28;20503;-65
2022/08/30 05:32:19;;;;;;;4.40;2.63;;;;;;;24.23;51.60;100403.69;5051264;28;20186;-65
2022/08/30 05:34:45;;;;;;;4.87;2.83;;;;;;;24.25;51.53;100406.16;5051851;28;20425;-64
2022/08/30 05:37:10;;;;;;;6.47;2.97;;;;;;;24.25;51.58;100398.34;5051761;28;20222;-64
2022/08/30 05:39:36;;;;;;;6.00;2.70;;;;;;;24.24;51.20;100401.63;5051101;28;20187;-64
2022/08/30 05:42:01;;;;;;;7.53;3.10;;;;;;;24.23;51.19;100406.56;5050339;28;20176;-65
2022/08/30 05:44:26;;;;;;;7.60;3.00;;;;;;;24.24;51.49;100413.16;5051756;28;20681;-65
2022/08/30 05:46:52;;;;;;;5.93;2.93;;;;;;;24.22;51.07;100415.63;5051749;28;20575;-64
2022/08/30 05:49:17;;;;;;;3.60;2.60;;;;;;;24.21;51.14;100417.72;5051480;28;20654;-64
2022/08/30 05:51:43;;;;;;;5.00;2.73;;;;;;;24.21;50.94;100409.06;5050674;28;20619;-65
2022/08/30 05:54:08;;;;;;;4.67;2.67;;;;;;;24.20;51.17;100412.34;5062538;28;20195;-65
2022/08/30 05:56:39;;;;;;;5.63;2.83;;;;;;;24.19;51.09;100423.06;5069239;28;20211;-63
2022/08/30 05:59:05;;;;;;;5.73;3.07;;;;;;;24.19;51.47;100428.03;5070878;28;20232;-63
2022/08/30 06:01:32;;;;;;;5.30;2.80;;;;;;;24.18;51.16;100426.38;5070092;28;20421;-63
2022/08/30 06:03:59;;;;;;;5.07;2.73;;;;;;;24.15;51.05;100416.50;5070453;28;20420;-63
2022/08/30 06:06:25;;;;;;;8.07;3.70;;;;;;;24.15;50.99;100407.84;5071168;28;20420;-63
2022/08/30 06:08:51;;;;;;;6.60;2.70;;;;;;;24.14;51.18;100414.03;5070276;28;20425;-63
2022/08/30 06:11:21;;;;;;;5.63;3.30;;;;;;;24.14;50.88;100416.91;5070269;28;20187;-63
2022/08/30 06:13:47;;;;;;;4.33;2.73;;;;;;;24.12;50.88;100416.47;5070895;28;20245;-62
2022/08/30 06:16:13;;;;;;;7.30;3.17;;;;;;;24.09;50.80;100418.13;5069892;28;20534;-63
2022/08/30 06:18:40;;;;;;;5.30;3.07;;;;;;;24.10;50.88;100419.81;5068099;28;20495;-63
2022/08/30 06:21:05;;;;;;;4.97;3.07;;;;;;;24.12;51.04;100423.09;5069621;28;20935;-63
2022/08/30 06:23:31;;;;;;;7.20;3.07;;;;;;;24.13;50.86;100412.38;5068434;28;20209;-62
2022/08/30 06:26:05;;;;;;;6.50;3.53;;;;;;;24.11;50.76;100420.63;5069845;28;20225;-63
2022/08/30 06:28:31;;;;;;;8.03;2.93;;;;;;;24.10;50.83;100418.97;5067884;28;20554;-62
2022/08/30 06:30:56;;;;;;;7.83;3.10;;;;;;;24.08;50.75;100422.28;5070298;28;20420;-63
2022/08/30 06:33:22;;;;;;;8.03;2.90;;;;;;;24.07;51.11;100420.63;5070783;28;20401;-63
2022/08/30 06:35:47;;;;;;;4.90;2.80;;;;;;;23.95;51.14;100423.97;5069055;28;20577;-63
2022/08/30 06:38:12;;;;;;;6.37;2.90;;;;;;;23.93;51.11;100426.41;5070622;28;20708;-63
2022/08/30 06:40:38;;;;;;;6.30;2.90;;;;;;;24.02;50.78;100425.97;5070684;28;20265;-63
2022/08/30 06:43:03;;;;;;;6.20;2.90;;;;;;;24.12;51.12;100436.69;5070113;28;20179;-64
2022/08/30 06:45:29;;;;;;;7.03;3.27;;;;;;;24.29;52.21;100430.06;5066021;28;20198;-63
2022/08/30 06:47:56;;;;;;;8.30;3.80;;;;;;;24.61;53.88;100431.59;5064210;28;20179;-64
2022/08/30 06:50:24;;;;;;;12.60;4.93;;;;;;;24.78;54.58;100433.56;5047777;28;20418;-63
2022/08/30 06:52:50;;;;;;;15.47;3.90;;;;;;;24.28;52.38;100435.00;5050880;28;20453;-63
2022/08/30 06:55:15;;;;;;;10.90;3.77;;;;;;;24.29;53.02;100438.72;5069089;28;20413;-63
2022/08/30 06:57:41;;;;;;;7.30;3.60;;;;;;;24.15;52.65;100438.75;5064006;28;20795;-63
2022/08/30 07:00:08;;;;;;;7.57;3.70;;;;;;;24.11;52.84;100438.75;5062000;28;20673;-63
2022/08/30 07:02:35;;;;;;;6.70;3.30;;;;;;;24.13;53.13;100450.69;5050454;28;20190;-63
2022/08/30 07:05:01;;;;;;;8.50;3.57;;;;;;;24.18;52.65;100450.28;5063116;28;20433;-63
2022/08/30 07:07:26;;;;;;;10.47;3.27;;;;;;;24.25;52.46;100449.44;5069174;28;20429;-63
2022/08/30 07:09:52;;;;;;;6.57;3.33;;;;;;;24.26;53.44;100448.19;5064852;28;20183;-63
2022/08/30 07:12:18;;;;;;;7.43;3.00;;;;;;;24.26;53.86;100448.19;5069119;28;20227;-64
2022/08/30 07:14:43;;;;;;;8.40;3.63;;;;;;;24.28;52.52;100452.31;5061458;28;20273;-64
2022/08/30 07:19:53;;;;;;;11.23;3.57;;;;;;;24.12;52.37;100446.16;5050524;28;20291;-63
2022/08/30 07:22:18;;;;;;;9.27;3.47;;;;;;;24.05;51.82;100440.44;5049422;28;20533;-64
2022/08/30 07:24:44;;;;;;;9.07;4.00;;;;;;;24.07;52.20;100440.81;5050584;28;20187;-64
2022/08/30 07:27:09;;;;;;;9.83;3.57;;;;;;;23.92;51.61;100444.13;5050909;28;20175;-62
2022/08/30 07:29:35;;;;;;;11.13;3.33;;;;;;;24.04;51.75;100444.53;5057413;28;20214;-63
2022/08/30 07:32:00;;;;;;;11.47;5.10;;;;;;;24.25;53.27;100443.66;5037727;28;20533;-64
2022/08/30 07:34:26;;;;;;;16.13;5.33;;;;;;;24.33;52.82;100446.09;5066230;28;20626;-63
2022/08/30 07:36:51;;;;;;;12.90;4.77;;;;;;;24.39;53.55;100437.84;5068551;28;20722;-62
2022/08/30 07:39:17;;;;;;;10.43;4.20;;;;;;;24.20;53.57;100442.03;5067809;28;20573;-63
2022/08/30 07:41:43;;;;;;;10.00;4.13;;;;;;;24.28;52.96;100449.41;5066803;28;20254;-64
2022/08/30 07:44:08;;;;;;;12.10;4.50;;;;;;;23.99;53.46;100441.25;5067819;28;20549;-63
2022/08/30 07:46:34;;;;;;;14.23;4.20;;;;;;;24.24;53.68;100439.94;5051561;28;20430;-64
2022/08/30 07:48:59;;;;;;;10.30;4.70;;;;;;;24.33;53.38;100446.09;5056178;28;20194;-63
2022/08/30 07:51:26;;;;;;;9.97;4.07;;;;;;;24.21;53.45;100448.63;5050815;28;20180;-63
2022/08/30 07:53:52;;;;;;;10.17;3.90;;;;;;;24.25;52.62;100435.00;5054301;28;20398;-62
2022/08/30 07:56:17;;;;;;;11.40;3.50;;;;;;;23.99;52.98;100444.94;5047265;28;20461;-64
2022/08/30 07:58:43;;;;;;;10.23;4.20;;;;;;;24.16;52.30;100440.38;5053090;28;20442;-63
2022/08/30 08:01:09;;;;;;;10.97;4.27;;;;;;;24.24;52.22;100439.94;5046750;28;20180;-63
2022/08/30 08:03:34;;;;;;;6.70;3.50;;;;;;;24.05;52.26;100443.31;5065164;28;20209;-64
2022/08/30 08:06:02;;;;;;;9.40;3.70;;;;;;;24.15;52.48;100433.81;5058450;28;20433;-63
2022/08/30 08:08:27;;;;;;;10.57;3.60;;;;;;;24.11;52.42;100444.53;5071342;28;20183;-64
2022/08/30 08:10:53;;;;;;;9.47;4.00;;;;;;;24.07;53.23;100437.94;5065824;28;20453;-64
2022/08/30 08:13:18;;;;;;;10.87;3.67;;;;;;;24.21;53.04;100442.84;5068276;28;20584;-63
2022/08/30 08:15:44;;;;;;;9.10;4.40;;;;;;;24.23;53.20;100441.19;5069177;28;20171;-63
2022/08/30 08:18:09;;;;;;;7.80;4.00;;;;;;;24.28;53.22;100440.75;5071640;28;20175;-63
2022/08/30 08:20:35;;;;;;;6.80;3.67;;;;;;;24.33;52.82;100436.66;5071516;28;20159;-63
2022/08/30 08:23:00;;;;;;;12.10;3.93;;;;;;;24.26;53.28;100445.31;5071653;28;20179;-63
2022/08/30 08:25:26;;;;;;;7.60;4.03;;;;;;;24.28;53.14;100435.00;5072134;28;20824;-63
2022/08/30 08:27:51;;;;;;;13.50;4.07;;;;;;;24.29;53.15;100435.81;5064522;28;20203;-62
2022/08/30 08:30:20;;;;;;;8.40;3.90;;;;;;;24.34;53.02;100430.44;5051109;28;20666;-62
2022/08/30 08:32:46;;;;;;;9.67;4.30;;;;;;;24.36;53.27;100435.78;5053037;28;20160;-63
2022/08/30 08:35:11;;;;;;;5.37;3.60;;;;;;;24.39;52.91;100432.88;5051690;28;20968;-63
2022/08/30 08:37:38;;;;;;;8.20;4.40;;;;;;;24.31;53.26;100431.28;5052869;28;20199;-63
2022/08/30 08:40:04;;;;;;;9.10;4.23;;;;;;;24.27;53.43;100427.56;5053120;28;20172;-63
2022/08/30 08:42:41;;;;;;;9.87;4.20;;;;;;;24.33;53.38;100422.22;5053011;28;20464;-63
2022/08/30 08:45:12;;;;;;;6.27;3.90;;;;;;;24.35;53.31;100426.31;5072525;28;20428;-63
2022/08/30 08:47:59;;;;;;;5.70;3.80;;;;;;;24.38;53.11;100421.78;5072228;28;20409;-63
2022/08/30 08:50:25;;;;;;;9.40;4.00;;;;;;;24.35;53.58;100426.31;5070729;28;20410;-63
2022/08/30 08:55:43;;;;;;;8.73;4.60;;;;;;;24.28;53.50;100425.53;5070182;28;20259;-63
2022/08/30 08:58:13;;;;;;;10.33;4.60;;;;;;;24.29;53.61;100422.19;5043045;28;20913;-63
2022/08/30 09:00:39;;;;;;;10.00;4.30;;;;;;;24.32;53.88;100430.03;5049776;28;20980;-63
2022/08/30 09:03:04;;;;;;;6.43;4.27;;;;;;;24.34;53.47;100416.00;5049502;28;20433;-63
2022/08/30 09:05:37;;;;;;;10.83;4.90;;;;;;;24.38;53.11;100408.16;5049923;28;20184;-63
2022/08/30 09:08:07;;;;;;;7.43;4.03;;;;;;;24.41;53.84;100415.16;5050962;28;20213;-63
2022/08/30 09:10:33;;;;;;;8.40;4.90;;;;;;;24.43;53.52;100406.91;5050929;28;20827;-63
2022/08/30 09:12:59;;;;;;;9.27;4.33;;;;;;;24.46;53.33;100414.72;5050131;28;20478;-63
2022/08/30 09:15:29;;;;;;;7.70;4.27;;;;;;;24.43;53.11;100419.28;5052083;28;20176;-63
2022/08/30 09:17:55;;;;;;;7.70;4.30;;;;;;;24.49;53.23;100414.69;5052242;28;20604;-63
2022/08/30 09:20:33;;;;;;;8.00;4.10;;;;;;;24.48;53.48;100412.25;5052053;28;20425;-63
2022/08/30 09:23:09;;;;;;;5.57;3.90;;;;;;;24.50;53.22;100407.72;5050273;28;20414;-63
2022/08/30 09:25:35;;;;;;;7.70;4.53;;;;;;;24.52;53.40;100413.88;5049078;28;20418;-63
2022/08/30 09:28:09;;;;;;;6.83;4.60;;;;;;;24.52;53.21;100413.88;5049884;28;20423;-63
2022/08/30 09:30:36;;;;;;;8.07;4.93;;;;;;;24.50;53.27;100404.81;5050048;28;20169;-63
2022/08/30 09:33:06;;;;;;;14.67;4.83;;;;;;;24.55;53.15;100407.28;5049454;28;20442;-63
2022/08/30 09:35:45;;;;;;;11.97;4.43;;;;;;;24.57;53.46;100398.16;5050520;28;20445;-62
2022/08/30 09:38:31;;;;;;;6.70;4.60;;;;;;;24.60;53.33;100404.00;5050063;28;20423;-63
2022/08/30 09:40:58;;;;;;;9.37;5.87;;;;;;;24.59;53.37;100393.66;5050260;28;20414;-63
2022/08/30 09:43:26;;;;;;;14.20;5.83;;;;;;;24.63;53.18;100382.91;5050389;28;20430;-63
2022/08/30 09:45:57;;;;;;;8.87;4.83;;;;;;;24.62;53.53;100378.38;5050558;28;20422;-63
2022/08/30 09:48:27;;;;;;;7.40;4.40;;;;;;;24.66;53.50;100375.47;5051057;28;20509;-63
2022/08/30 09:51:14;;;;;;;9.30;5.07;;;;;;;24.65;53.69;100376.72;5050598;28;20912;-62
2022/08/30 09:53:49;;;;;;;9.17;4.83;;;;;;;24.67;53.68;100380.84;5058666;28;20445;-63
2022/08/30 09:56:39;;;;;;;7.67;4.93;;;;;;;24.67;53.75;100375.06;5071053;28;20457;-64
2022/08/30 09:59:28;;;;;;;8.87;5.07;;;;;;;24.70;54.18;100374.22;5071028;28;20420;-64
2022/08/30 10:02:19;;;;;;;7.90;5.10;;;;;;;24.75;53.82;100370.06;5060300;28;20433;-64
2022/08/30 10:05:05;;;;;;;11.27;5.83;;;;;;;24.79;53.79;100371.69;5032483;28;20417;-64
2022/08/30 10:07:35;;;;;;;15.07;4.97;;;;;;;24.80;54.09;100360.97;5070931;28;20895;-64
2022/08/30 10:10:15;;;;;;;14.70;4.83;;;;;;;24.85;53.82;100354.75;5069233;28;20436;-64
2022/08/30 10:13:05;;;;;;;15.63;5.30;;;;;;;24.87;53.90;100358.00;5067798;28;20469;-64
2022/08/30 10:15:39;;;;;;;12.53;4.90;;;;;;;24.85;54.03;100352.69;5068846;28;20425;-63
2022/08/30 10:18:28;;;;;;;8.97;4.60;;;;;;;24.87;53.91;100350.19;5048245;28;20469;-64
2022/08/30 10:21:20;;;;;;;13.57;5.00;;;;;;;24.94;54.10;100355.09;5068812;28;20846;-64
2022/08/30 10:24:06;;;;;;;9.90;5.60;;;;;;;24.93;54.12;100342.72;5068647;28;20429;-64
2022/08/30 10:26:35;;;;;;;8.47;4.50;;;;;;;24.92;54.41;100343.97;5069810;28;20417;-64
2022/08/30 10:29:11;;;;;;;7.30;4.50;;;;;;;24.95;54.26;100348.91;5069466;28;20429;-64
2022/08/30 10:31:58;;;;;;;9.40;5.17;;;;;;;24.95;54.27;100348.91;5069417;28;20458;-64
2022/08/30 10:34:48;;;;;;;16.23;6.10;;;;;;;24.97;53.89;100346.41;5068321;28;20427;-64
2022/08/30 10:37:17;;;;;;;14.53;5.30;;;;;;;24.93;54.23;100342.72;5068243;28;20469;-64
2022/08/30 10:39:45;;;;;;;8.40;5.50;;;;;;;24.93;53.95;100347.69;5052812;28;20429;-64
2022/08/30 10:42:17;;;;;;;10.10;6.50;;;;;;;24.96;54.38;100343.94;5069326;28;20441;-64
2022/08/30 10:44:45;;;;;;;12.73;6.03;;;;;;;25.03;54.13;100336.03;5052713;28;20437;-64
2022/08/30 10:47:30;;;;;;;9.07;5.53;;;;;;;25.03;54.44;100333.13;5051052;28;20529;-64
2022/08/30 10:50:30;;;;;;;13.20;4.63;;;;;;;25.01;54.64;100332.75;5069055;28;20920;-64
2022/08/30 10:53:07;;;;;;;9.23;5.47;;;;;;;25.10;54.55;100336.00;5056952;28;20472;-64
2022/08/30 10:55:35;;;;;;;9.83;5.40;;;;;;;25.13;54.50;100329.34;5067249;28;20936;-64
2022/08/30 10:58:01;;;;;;;7.90;5.33;;;;;;;25.07;54.94;100325.28;5059264;28;20470;-64
2022/08/30 11:00:52;;;;;;;9.60;5.77;;;;;;;25.10;54.97;100326.50;5049968;28;20418;-65
2022/08/30 11:03:36;;;;;;;8.13;5.43;;;;;;;25.10;54.71;100335.16;5050338;28;20403;-64
2022/08/30 11:06:29;;;;;;;10.50;5.70;;;;;;;25.04;54.72;100331.88;5050457;28;20406;-64
2022/08/30 11:09:13;;;;;;;7.93;5.50;;;;;;;25.03;55.30;100336.03;5050352;28;20785;-64
2022/08/30 11:11:45;;;;;;;11.63;4.93;;;;;;;25.07;55.03;100336.84;5050133;28;20493;-64
2022/08/30 11:14:15;;;;;;;11.53;5.17;;;;;;;25.04;54.98;100331.88;5050148;28;20518;-64
2022/08/30 11:16:42;;;;;;;8.00;5.43;;;;;;;25.05;54.87;100347.16;5050351;28;20454;-64
2022/08/30 11:19:44;;;;;;;8.13;5.73;;;;;;;25.10;54.92;100330.22;5050310;28;20779;-64
2022/08/30 11:22:14;;;;;;;8.20;6.10;;;;;;;25.08;54.94;100335.56;4988596;28;20519;-64
2022/08/30 11:25:22;;;;;;;11.53;5.77;;;;;;;25.14;55.12;100336.75;5051710;28;20422;-64
2022/08/30 11:27:52;;;;;;;7.83;5.43;;;;;;;25.12;55.55;100327.72;5049604;28;20520;-64
2022/08/30 11:30:40;;;;;;;7.07;5.50;;;;;;;25.10;55.30;100333.09;5048932;28;20516;-64
2022/08/30 11:33:09;;;;;;;10.43;5.20;;;;;;;25.16;55.08;100325.63;5040439;28;20959;-64
2022/08/30 11:35:35;;;;;;;9.83;5.30;;;;;;;25.19;54.90;100321.84;5050282;28;20425;-64
2022/08/30 11:38:01;;;;;;;9.57;4.83;;;;;;;25.25;55.29;100325.13;5053542;28;20556;-64
2022/08/30 11:40:26;;;;;;;11.37;6.60;;;;;;;25.31;54.70;100318.50;5035761;28;20441;-64